Time;durP1;ratioP1;P1;durP2;ratioP2;P2;SDS_P1;SDS_P2;PMS_P1;PMS_P2;Temp;Humidity;BMP_temperature;BMP_pressure;BME280_temperature;BME280_humidity;BME280_pressure;Samples;Min_cycle;Max_cycle;Signal;HPM_P1;HPM_P2
2022/07/30 00:00:16;;;;;;;936.63;873.80;;;;;;;24.42;35.73;101116.00;687581;28;92250;-65
2022/07/30 00:00:37;;;;;;;906.38;844.55;;;;;;;24.43;35.67;101112.19;689998;28;21520;-65
2022/07/30 00:00:59;;;;;;;906.35;844.58;;;;;;;24.43;35.67;101109.41;689645;28;20894;-66
2022/07/30 00:01:21;;;;;;;923.85;861.45;;;;;;;24.43;35.55;101103.91;689243;28;46327;-66
2022/07/30 00:01:42;;;;;;;906.40;844.55;;;;;;;24.44;35.59;101111.91;688132;28;66223;-65
2022/07/30 00:02:03;;;;;;;909.20;847.22;;;;;;;24.41;35.77;101104.16;690000;28;22400;-66
2022/07/30 00:02:25;;;;;;;913.42;851.40;;;;;;;24.35;35.70;101096.91;690137;28;23445;-65
2022/07/30 00:02:47;;;;;;;924.28;861.80;;;;;;;24.39;35.69;101103.59;689928;28;23494;-65
2022/07/30 00:03:08;;;;;;;919.22;856.92;;;;;;;24.40;35.85;101107.19;688968;28;69196;-65
2022/07/30 00:03:30;;;;;;;935.88;873.13;;;;;;;24.38;35.46;101096.38;690149;28;21573;-65
2022/07/30 00:03:51;;;;;;;950.33;886.92;;;;;;;24.39;35.75;101099.97;689863;28;22185;-65
2022/07/30 00:04:13;;;;;;;968.35;904.25;;;;;;;24.38;35.79;101104.66;689966;28;23471;-64
2022/07/30 00:04:34;;;;;;;986.10;921.35;;;;;;;24.37;35.93;101103.00;688880;28;68148;-65
2022/07/30 00:04:55;;;;;;;986.80;922.00;;;;;;;24.35;36.13;101107.94;690048;28;21525;-65
2022/07/30 00:05:16;;;;;;;982.75;918.15;;;;;;;24.35;36.13;101112.66;690099;28;22515;-66
2022/07/30 00:05:39;;;;;;;893.05;831.42;;;;;;;24.34;36.33;101105.44;690221;28;24133;-66
2022/07/30 00:06:00;;;;;;;906.20;844.30;;;;;;;24.34;36.13;101110.97;688771;28;45244;-66
2022/07/30 00:06:21;;;;;;;970.47;906.58;;;;;;;24.33;36.12;101109.31;689281;28;46441;-66
2022/07/30 00:06:42;;;;;;;949.03;885.78;;;;;;;24.33;36.54;101104.63;687980;28;42333;-65
2022/07/30 00:07:03;;;;;;;923.42;861.00;;;;;;;24.33;36.14;101104.63;689403;28;22416;-65
2022/07/30 00:07:26;;;;;;;957.67;894.15;;;;;;;24.31;36.51;101101.31;689642;28;22359;-65
2022/07/30 00:07:47;;;;;;;958.38;894.88;;;;;;;24.32;35.97;101102.94;689217;28;47737;-65
2022/07/30 00:08:09;;;;;;;947.53;884.42;;;;;;;24.32;35.98;101100.19;689448;28;23441;-66
2022/07/30 00:08:32;;;;;;;874.90;813.85;;;;;;;24.31;36.33;101101.31;687988;28;69395;-66
2022/07/30 00:08:53;;;;;;;924.45;861.78;;;;;;;24.30;36.02;101094.09;688910;28;47175;-65
2022/07/30 00:09:14;;;;;;;961.45;897.75;;;;;;;24.32;36.29;101105.72;690193;28;22339;-65
2022/07/30 00:09:35;;;;;;;974.47;910.45;;;;;;;24.33;35.85;101096.34;689597;28;22250;-65
2022/07/30 00:09:56;;;;;;;961.70;898.05;;;;;;;24.33;36.22;101106.56;688860;28;44223;-65
2022/07/30 00:10:21;;;;;;;945.22;882.17;;;;;;;24.25;35.91;101091.31;690233;28;23542;-65
2022/07/30 00:10:42;;;;;;;901.08;839.35;;;;;;;24.30;36.29;101099.63;686787;28;115121;-66
2022/07/30 00:11:04;;;;;;;951.03;887.75;;;;;;;24.32;36.19;101102.94;689902;28;22404;-65
2022/07/30 00:11:25;;;;;;;956.47;893.08;;;;;;;24.28;36.33;101097.13;689544;28;21545;-66
2022/07/30 00:11:47;;;;;;;963.28;899.50;;;;;;;24.32;35.94;101099.38;690236;28;22208;-64
2022/07/30 00:12:08;;;;;;;936.65;873.67;;;;;;;24.31;36.29;101101.31;689365;28;46319;-64
2022/07/30 00:12:30;;;;;;;944.35;881.15;;;;;;;24.29;36.08;101095.19;689098;28;46248;-65
2022/07/30 00:12:51;;;;;;;943.53;880.27;;;;;;;24.29;36.01;101106.22;688990;28;46174;-65
2022/07/30 00:13:13;;;;;;;958.75;895.05;;;;;;;24.28;36.43;101096.31;689286;28;46343;-64
2022/07/30 00:13:35;;;;;;;954.35;890.92;;;;;;;24.31;36.14;101101.31;689408;28;44339;-65
2022/07/30 00:13:56;;;;;;;940.83;877.92;;;;;;;24.31;36.22;101106.81;689794;28;22204;-65
2022/07/30 00:14:17;;;;;;;953.60;890.28;;;;;;;24.31;36.08;101104.06;690072;28;22388;-64
2022/07/30 00:14:38;;;;;;;956.50;893.20;;;;;;;24.30;36.06;101096.88;688794;28;22575;-65
2022/07/30 00:15:00;;;;;;;960.92;897.20;;;;;;;24.31;36.00;101098.53;689602;28;23259;-64
2022/07/30 00:15:22;;;;;;;965.83;902.03;;;;;;;24.29;36.02;101107.09;687472;28;70368;-65
2022/07/30 00:15:43;;;;;;;950.47;887.28;;;;;;;24.31;36.31;101108.72;689185;28;44358;-64
2022/07/30 00:16:04;;;;;;;954.30;890.80;;;;;;;24.27;36.02;101094.63;689925;28;23462;-64
2022/07/30 00:16:25;;;;;;;957.85;894.25;;;;;;;24.30;36.22;101105.16;689410;28;22403;-65
2022/07/30 00:16:48;;;;;;;937.35;874.65;;;;;;;24.29;36.53;101106.22;689978;28;22417;-65
2022/07/30 00:17:09;;;;;;;926.60;864.15;;;;;;;24.28;36.27;101105.41;688213;28;69213;-64
2022/07/30 00:17:30;;;;;;;893.58;832.13;;;;;;;24.28;36.19;101099.06;690086;28;21521;-65
2022/07/30 00:17:52;;;;;;;903.92;842.25;;;;;;;24.28;36.33;101104.59;690794;28;23348;-65
2022/07/30 00:18:14;;;;;;;917.30;855.15;;;;;;;24.28;36.27;101105.41;689106;28;45240;-65
2022/07/30 00:18:35;;;;;;;902.35;840.58;;;;;;;24.29;36.23;101106.22;688777;28;46297;-65
2022/07/30 00:18:56;;;;;;;908.97;847.10;;;;;;;24.26;36.23;101104.84;689655;28;23424;-65
2022/07/30 00:19:18;;;;;;;919.45;857.17;;;;;;;24.27;36.43;101100.97;689430;28;21527;-65
2022/07/30 00:19:40;;;;;;;928.60;866.10;;;;;;;24.24;36.48;101107.00;688810;28;46318;-65
2022/07/30 00:20:02;;;;;;;907.55;845.70;;;;;;;24.25;36.46;101107.88;688981;28;44394;-65
2022/07/30 00:20:28;;;;;;;917.53;855.40;;;;;;;24.25;36.13;101103.16;685762;28;136375;-65
2022/07/30 00:20:50;;;;;;;937.28;874.53;;;;;;;24.21;36.39;101102.00;688827;28;45253;-65
2022/07/30 00:21:12;;;;;;;918.35;856.22;;;;;;;24.23;36.43;101105.38;689977;28;21526;-65
2022/07/30 00:21:33;;;;;;;914.42;852.40;;;;;;;24.23;36.60;101104.50;687549;28;68426;-65
2022/07/30 00:21:54;;;;;;;938.75;875.92;;;;;;;24.21;36.58;101107.53;689377;28;21554;-65
2022/07/30 00:22:15;;;;;;;932.42;869.85;;;;;;;24.21;36.46;101101.19;690016;28;23419;-66
2022/07/30 00:22:37;;;;;;;901.17;839.55;;;;;;;24.20;36.89;101105.88;689671;28;22405;-66
2022/07/30 00:23:03;;;;;;;924.08;861.70;;;;;;;24.19;36.51;101103.38;689858;28;24782;-66
2022/07/30 00:23:26;;;;;;;946.30;883.25;;;;;;;24.15;36.31;101102.22;685891;28;136311;-66
2022/07/30 00:23:47;;;;;;;903.85;842.10;;;;;;;24.17;36.71;101103.66;689071;28;70187;-66
2022/07/30 00:24:09;;;;;;;867.67;807.00;;;;;;;24.09;36.70;101099.41;689387;28;23423;-66
2022/07/30 00:24:30;;;;;;;926.80;864.28;;;;;;;24.16;36.56;101103.91;689209;28;43964;-66
2022/07/30 00:24:52;;;;;;;984.33;919.83;;;;;;;24.16;36.77;101107.47;689739;28;23438;-65
2022/07/30 00:25:14;;;;;;;979.85;915.38;;;;;;;24.13;36.70;101105.25;688830;28;44472;-65
2022/07/30 00:25:35;;;;;;;931.17;868.33;;;;;;;24.14;36.55;101109.69;690020;28;22413;-65
2022/07/30 00:25:57;;;;;;;915.65;853.40;;;;;;;24.13;36.52;101102.47;688562;28;44541;-65
2022/07/30 00:26:18;;;;;;;958.35;894.55;;;;;;;24.11;36.77;101105.50;688849;28;46385;-65
2022/07/30 00:26:40;;;;;;;968.08;903.97;;;;;;;24.13;37.09;101104.41;689079;28;22411;-65
2022/07/30 00:27:01;;;;;;;970.67;906.53;;;;;;;24.10;36.72;101109.34;689263;28;22390;-65
2022/07/30 00:27:23;;;;;;;920.63;858.25;;;;;;;24.11;36.74;101101.91;689663;28;21552;-66
2022/07/30 00:27:44;;;;;;;928.15;865.65;;;;;;;24.07;36.87;101100.75;686036;28;45234;-65
2022/07/30 00:28:06;;;;;;;953.42;890.05;;;;;;;24.08;36.62;101106.03;683309;28;44092;-65
2022/07/30 00:28:27;;;;;;;931.22;868.65;;;;;;;24.06;37.12;101105.44;682288;29;1187;-66
2022/07/30 00:28:49;;;;;;;918.13;855.92;;;;;;;24.09;36.94;101106.84;679829;29;22529;-66
2022/07/30 00:29:10;;;;;;;919.53;857.30;;;;;;;24.07;36.80;101109.03;678002;29;46390;-66
2022/07/30 00:29:31;;;;;;;954.17;890.88;;;;;;;24.08;36.68;101105.19;678840;29;45221;-66
2022/07/30 00:29:55;;;;;;;942.38;879.45;;;;;;;24.08;37.03;101099.69;679859;28;92244;-66
2022/07/30 00:30:17;;;;;;;921.45;859.13;;;;;;;24.07;36.96;101100.75;683905;28;21502;-67
2022/07/30 00:30:39;;;;;;;929.95;867.35;;;;;;;24.08;36.91;101105.19;682680;28;43925;-67
2022/07/30 00:31:01;;;;;;;944.80;881.60;;;;;;;24.07;36.68;101104.34;685726;28;22115;-66
2022/07/30 00:31:22;;;;;;;955.78;892.35;;;;;;;24.09;36.85;101104.06;686790;28;44390;-66
2022/07/30 00:31:43;;;;;;;955.88;892.38;;;;;;;24.08;36.96;101106.03;687622;28;22374;-65
2022/07/30 00:32:06;;;;;;;935.50;872.75;;;;;;;24.08;36.98;101105.19;686193;28;23452;-65
2022/07/30 00:32:27;;;;;;;905.53;843.78;;;;;;;24.07;36.95;101103.50;685846;28;67480;-65
2022/07/30 00:32:48;;;;;;;923.03;860.63;;;;;;;24.06;36.93;101096.31;689357;28;23462;-65
2022/07/30 00:33:09;;;;;;;923.78;861.28;;;;;;;24.07;36.73;101101.59;688759;28;44384;-66
2022/07/30 00:33:32;;;;;;;930.58;867.83;;;;;;;24.06;37.03;101099.94;689799;28;22245;-64
2022/07/30 00:33:53;;;;;;;939.92;876.85;;;;;;;24.05;36.85;101098.25;686803;28;46163;-65
2022/07/30 00:34:14;;;;;;;963.92;900.05;;;;;;;24.05;36.78;101098.25;687121;28;21551;-65
2022/07/30 00:34:35;;;;;;;964.13;900.28;;;;;;;24.02;36.91;101093.25;686956;28;23680;-65
2022/07/30 00:34:57;;;;;;;916.00;853.90;;;;;;;24.06;36.91;101099.94;686869;28;21636;-65
2022/07/30 00:35:18;;;;;;;932.72;870.08;;;;;;;24.07;36.64;101103.50;686596;28;46327;-65
2022/07/30 00:35:40;;;;;;;937.75;875.00;;;;;;;24.05;37.10;101101.00;687510;28;22396;-66
2022/07/30 00:36:01;;;;;;;933.17;870.53;;;;;;;24.06;37.07;101102.69;688757;28;46468;-65
2022/07/30 00:36:23;;;;;;;948.65;885.55;;;;;;;24.05;36.92;101100.19;689392;28;23467;-66
2022/07/30 00:36:44;;;;;;;940.20;877.38;;;;;;;24.05;36.89;101106.53;689702;28;46307;-66
2022/07/30 00:37:06;;;;;;;919.53;857.25;;;;;;;24.05;36.92;101101.00;687842;28;22424;-65
2022/07/30 00:37:28;;;;;;;924.13;861.78;;;;;;;24.06;36.80;101102.69;687012;28;67556;-65
2022/07/30 00:37:49;;;;;;;943.75;880.70;;;;;;;24.06;37.08;101099.09;689278;28;44187;-66
2022/07/30 00:38:10;;;;;;;958.88;895.25;;;;;;;24.03;37.23;101096.88;687256;28;21533;-66
2022/07/30 00:38:33;;;;;;;955.10;891.80;;;;;;;24.03;36.75;101097.69;684357;28;22098;-66
2022/07/30 00:38:55;;;;;;;947.47;884.38;;;;;;;24.08;37.14;101099.69;683161;28;67285;-66
2022/07/30 00:39:16;;;;;;;908.33;846.53;;;;;;;24.07;36.97;101100.75;685913;28;44399;-65
2022/07/30 00:39:38;;;;;;;935.05;872.25;;;;;;;24.08;36.83;101103.25;686246;28;44181;-67
2022/07/30 00:39:59;;;;;;;918.42;856.22;;;;;;;24.08;36.79;101102.44;687359;28;21564;-66
2022/07/30 00:40:21;;;;;;;919.30;857.17;;;;;;;24.07;37.14;101098.00;690505;28;21427;-65
2022/07/30 00:40:43;;;;;;;950.70;887.47;;;;;;;24.03;36.76;101100.44;691349;28;44378;-66
2022/07/30 00:41:06;;;;;;;968.50;904.53;;;;;;;24.02;36.74;101098.78;690732;28;2735;-65
2022/07/30 00:41:27;;;;;;;974.33;910.05;;;;;;;24.03;36.95;101103.22;684838;28;70192;-64
2022/07/30 00:41:55;;;;;;;951.72;888.33;;;;;;;24.03;36.68;101107.91;686633;28;22406;-65
2022/07/30 00:42:24;;;;;;;945.50;882.50;;;;;;;24.02;36.91;101101.53;682335;28;137460;-66
2022/07/30 00:42:46;;;;;;;930.95;868.40;;;;;;;24.01;37.19;101107.31;682801;28;138172;-65
2022/07/30 00:43:13;;;;;;;920.53;858.40;;;;;;;24.01;36.85;101105.41;688918;28;44389;-65
2022/07/30 00:43:38;;;;;;;926.05;863.67;;;;;;;24.01;37.02;101105.41;683004;28;160998;-65
2022/07/30 00:43:59;;;;;;;933.60;870.95;;;;;;;23.99;36.91;101102.03;681570;28;137360;-65
2022/07/30 00:44:20;;;;;;;937.72;874.92;;;;;;;24.01;36.71;101099.03;685382;28;22343;-65
2022/07/30 00:44:42;;;;;;;937.60;874.80;;;;;;;23.99;36.73;101102.03;686323;28;23488;-65
2022/07/30 00:45:04;;;;;;;939.92;876.97;;;;;;;24.02;37.06;101103.47;685439;28;22424;-65
2022/07/30 00:45:27;;;;;;;958.35;894.65;;;;;;;23.99;36.80;101104.81;685826;28;45602;-66
2022/07/30 00:45:48;;;;;;;929.40;866.63;;;;;;;24.00;37.18;101106.47;687583;28;67470;-66
2022/07/30 00:46:10;;;;;;;924.97;862.33;;;;;;;24.00;36.84;101106.47;688849;28;45045;-65
2022/07/30 00:46:31;;;;;;;922.97;860.47;;;;;;;23.99;37.25;101104.81;687513;28;22399;-65
2022/07/30 00:46:53;;;;;;;912.65;850.58;;;;;;;24.01;36.88;101104.53;688932;28;20548;-66
2022/07/30 00:47:15;;;;;;;927.53;865.00;;;;;;;24.00;37.15;101100.97;685404;28;45248;-66
2022/07/30 00:47:36;;;;;;;930.30;867.70;;;;;;;23.98;37.05;101097.63;684806;28;46304;-65
2022/07/30 00:48:00;;;;;;;921.60;859.30;;;;;;;24.01;36.78;101099.88;682488;28;45316;-65
2022/07/30 00:48:21;;;;;;;924.55;862.25;;;;;;;24.02;36.94;101101.53;681535;28;69685;-65
2022/07/30 00:48:43;;;;;;;936.72;873.97;;;;;;;24.01;37.08;101099.88;681550;28;22281;-65
2022/07/30 00:49:05;;;;;;;948.45;885.28;;;;;;;24.03;37.16;101105.97;682382;28;69414;-65
2022/07/30 00:49:26;;;;;;;947.95;884.85;;;;;;;24.01;37.11;101099.88;685945;28;23356;-65
2022/07/30 00:49:47;;;;;;;951.00;887.72;;;;;;;24.01;37.15;101099.88;687094;28;22379;-66
2022/07/30 00:50:11;;;;;;;964.30;900.50;;;;;;;24.00;37.03;101092.69;689702;28;22256;-66
2022/07/30 00:50:36;;;;;;;950.90;887.63;;;;;;;24.00;37.03;101100.16;687806;28;92277;-65
2022/07/30 00:51:01;;;;;;;943.08;880.03;;;;;;;23.98;36.95;101094.88;687804;28;60294;-65
2022/07/30 00:51:23;;;;;;;938.85;876.03;;;;;;;24.03;37.03;101105.16;688567;28;23372;-66
2022/07/30 00:51:44;;;;;;;953.88;890.42;;;;;;;24.02;37.19;101093.25;687758;28;69489;-66
2022/07/30 00:52:06;;;;;;;946.42;883.10;;;;;;;24.01;37.20;101096.28;688831;28;45220;-65
2022/07/30 00:52:27;;;;;;;909.42;847.40;;;;;;;23.98;37.01;101097.63;689680;28;21554;-65
2022/07/30 00:52:49;;;;;;;909.35;847.42;;;;;;;23.99;37.08;101098.47;689266;28;22550;-65
2022/07/30 00:53:10;;;;;;;945.33;882.03;;;;;;;24.00;37.10;101094.63;689740;28;46322;-66
2022/07/30 00:53:33;;;;;;;915.85;853.72;;;;;;;24.00;37.09;101095.44;689155;28;46316;-66
2022/07/30 00:53:54;;;;;;;924.97;862.50;;;;;;;24.01;37.03;101097.13;688385;28;45248;-65
2022/07/30 00:54:17;;;;;;;917.85;855.63;;;;;;;24.02;36.91;101100.72;688467;28;44383;-66
2022/07/30 00:54:38;;;;;;;919.88;857.63;;;;;;;24.01;37.18;101094.38;686204;28;44357;-66
2022/07/30 00:54:59;;;;;;;928.53;865.90;;;;;;;24.00;37.15;101092.69;683887;28;21519;-67
2022/07/30 00:55:22;;;;;;;941.15;877.95;;;;;;;24.02;37.17;101095.19;683361;28;43988;-66
2022/07/30 00:55:43;;;;;;;946.78;883.42;;;;;;;24.00;37.01;101095.44;683672;28;44126;-66
2022/07/30 00:56:04;;;;;;;941.47;878.28;;;;;;;24.00;37.03;101097.38;686527;28;22395;-66
2022/07/30 00:56:26;;;;;;;908.70;846.72;;;;;;;23.94;36.88;101090.97;686413;28;21538;-67
2022/07/30 00:56:47;;;;;;;924.88;862.30;;;;;;;23.97;37.02;101101.47;689030;28;44361;-66
2022/07/30 00:57:09;;;;;;;916.22;854.03;;;;;;;23.97;37.05;101095.97;689044;28;23249;-65
2022/07/30 00:57:31;;;;;;;911.20;849.30;;;;;;;23.96;37.22;101094.28;688024;28;45213;-66
2022/07/30 00:57:52;;;;;;;911.33;849.35;;;;;;;23.97;36.97;101095.13;687466;28;45986;-66
2022/07/30 00:58:13;;;;;;;909.55;847.55;;;;;;;23.93;37.16;101089.28;686601;28;23450;-66
2022/07/30 00:58:34;;;;;;;914.08;851.97;;;;;;;23.93;37.03;101090.13;689611;28;22564;-65
2022/07/30 00:58:56;;;;;;;918.28;855.95;;;;;;;23.95;37.05;101091.78;686790;28;22391;-66
2022/07/30 00:59:18;;;;;;;918.28;855.97;;;;;;;23.93;37.09;101103.06;684149;28;46159;-65
2022/07/30 00:59:39;;;;;;;928.67;866.17;;;;;;;23.93;37.01;101097.56;684227;28;21501;-65
2022/07/30 01:00:00;;;;;;;901.85;840.10;;;;;;;23.89;37.28;101097.25;683967;28;43505;-65
2022/07/30 01:00:23;;;;;;;927.97;865.20;;;;;;;23.94;37.34;101096.47;686844;28;23403;-65
2022/07/30 01:00:44;;;;;;;946.38;883.15;;;;;;;23.93;37.30;101101.16;686523;28;45274;-66
2022/07/30 01:01:05;;;;;;;946.70;883.53;;;;;;;23.95;37.05;101097.31;686416;28;46318;-65
2022/07/30 01:01:26;;;;;;;909.22;847.28;;;;;;;23.95;36.99;101094.53;688895;28;23459;-66
2022/07/30 01:01:47;;;;;;;907.42;845.53;;;;;;;23.96;36.98;101094.28;689439;28;21578;-65
2022/07/30 01:02:11;;;;;;;932.80;870.15;;;;;;;23.96;37.02;101099.81;690789;28;21535;-65
2022/07/30 01:02:32;;;;;;;940.75;877.90;;;;;;;23.97;37.18;101093.22;687551;28;70100;-65
2022/07/30 01:02:53;;;;;;;956.85;893.20;;;;;;;23.97;37.00;101100.66;688724;28;46358;-66
2022/07/30 01:03:14;;;;;;;914.67;852.47;;;;;;;23.98;36.96;101099.53;689663;28;22387;-66
2022/07/30 01:03:37;;;;;;;927.88;865.28;;;;;;;23.98;37.06;101089.38;686921;28;20460;-66
2022/07/30 01:03:58;;;;;;;925.65;863.15;;;;;;;23.97;36.87;101101.47;684989;28;69344;-65
2022/07/30 01:04:20;;;;;;;961.97;898.10;;;;;;;23.99;37.04;101098.47;683952;28;22211;-65
2022/07/30 01:04:41;;;;;;;941.78;878.63;;;;;;;23.98;37.02;101094.88;685147;28;23243;-65
2022/07/30 01:05:02;;;;;;;934.58;871.75;;;;;;;23.96;37.11;101094.28;682032;28;21521;-66
2022/07/30 01:05:25;;;;;;;922.38;860.05;;;;;;;23.98;36.95;101092.13;683973;28;46292;-66
2022/07/30 01:05:46;;;;;;;919.30;857.13;;;;;;;23.92;37.03;101091.22;683097;28;46207;-67
2022/07/30 01:06:07;;;;;;;930.25;867.65;;;;;;;23.98;37.08;101094.03;683748;28;47177;-67
2022/07/30 01:06:29;;;;;;;956.05;892.60;;;;;;;23.97;36.95;101095.97;681965;28;22487;-65
2022/07/30 01:06:51;;;;;;;961.70;898.03;;;;;;;23.96;37.11;101097.03;679288;29;21526;-67
2022/07/30 01:07:12;;;;;;;956.13;892.58;;;;;;;23.98;37.13;101099.53;680370;29;45406;-66
2022/07/30 01:07:37;;;;;;;953.28;889.90;;;;;;;23.99;36.96;101095.72;681160;28;46254;-66
2022/07/30 01:07:58;;;;;;;956.58;893.17;;;;;;;23.97;36.97;101090.44;681811;28;90694;-66
2022/07/30 01:08:19;;;;;;;952.95;889.65;;;;;;;23.97;37.17;101093.22;684104;28;44360;-65
2022/07/30 01:08:43;;;;;;;941.97;878.97;;;;;;;23.98;37.30;101088.50;686865;28;21277;-65
2022/07/30 01:09:04;;;;;;;949.35;886.08;;;;;;;23.95;37.03;101091.78;684862;28;69151;-65
2022/07/30 01:09:25;;;;;;;958.83;895.13;;;;;;;23.95;37.39;101091.78;685707;28;44073;-66
2022/07/30 01:09:47;;;;;;;965.05;901.15;;;;;;;23.94;37.13;101090.97;685014;28;22397;-66
2022/07/30 01:10:10;;;;;;;960.13;896.33;;;;;;;23.94;37.05;101088.19;686905;28;22201;-66
2022/07/30 01:10:32;;;;;;;991.17;925.90;;;;;;;23.92;37.21;101088.47;685035;28;67281;-65
2022/07/30 01:10:53;;;;;;;1014.08;947.47;;;;;;;23.93;37.11;101086.53;686084;28;46077;-66
2022/07/30 01:11:15;;;;;;;1006.78;940.38;;;;;;;23.93;37.01;101092.03;686500;28;24386;-66
2022/07/30 01:11:38;;;;;;;1005.03;938.72;;;;;;;23.91;36.92;101088.72;688177;28;47230;-66
2022/07/30 01:11:59;;;;;;;1001.95;935.65;;;;;;;23.95;37.43;101089.03;686734;28;69504;-66
2022/07/30 01:12:24;;;;;;;991.90;926.10;;;;;;;23.94;37.31;101088.19;688347;28;22397;-65
2022/07/30 01:12:45;;;;;;;929.88;867.00;;;;;;;23.95;36.73;101089.88;685071;28;115936;-65
2022/07/30 01:13:07;;;;;;;866.70;805.85;;;;;;;23.96;37.11;101090.72;684993;28;45242;-65
2022/07/30 01:13:28;;;;;;;932.38;869.45;;;;;;;23.95;37.18;101089.88;685562;28;22393;-65
2022/07/30 01:13:51;;;;;;;1014.03;947.58;;;;;;;23.94;37.05;101085.44;687047;28;45249;-65
2022/07/30 01:14:12;;;;;;;1009.63;943.20;;;;;;;23.92;37.42;101088.47;689613;28;47828;-65
2022/07/30 01:14:34;;;;;;;1014.65;948.03;;;;;;;23.93;37.24;101090.13;689996;28;46337;-66
2022/07/30 01:14:56;;;;;;;995.45;929.45;;;;;;;23.95;36.97;101095.41;690109;28;22410;-65
2022/07/30 01:15:19;;;;;;;964.58;899.67;;;;;;;23.96;37.38;101085.19;692720;28;44384;-66
2022/07/30 01:15:41;;;;;;;969.20;904.60;;;;;;;23.92;37.27;101090.41;692218;28;67484;-67
2022/07/30 01:16:02;;;;;;;924.58;862.28;;;;;;;23.95;37.28;101092.63;691998;28;46425;-66
2022/07/30 01:16:24;;;;;;;933.58;871.05;;;;;;;23.95;37.04;101095.41;692890;28;22223;-66
2022/07/30 01:16:47;;;;;;;868.55;807.80;;;;;;;23.96;36.96;101093.47;691658;28;46432;-65
2022/07/30 01:17:08;;;;;;;895.58;833.97;;;;;;;23.95;37.19;101095.41;688238;28;46445;-66
2022/07/30 01:17:29;;;;;;;940.63;877.78;;;;;;;23.94;37.38;101090.97;688910;28;46266;-66
2022/07/30 01:17:52;;;;;;;979.10;914.42;;;;;;;23.94;37.31;101093.72;686547;28;20249;-66
2022/07/30 01:18:16;;;;;;;982.45;917.78;;;;;;;23.93;37.25;101086.53;679429;29;68906;-65
2022/07/30 01:20:05;;;;;;;959.20;895.17;;;;;;;23.91;37.31;101083.19;679491;28;137501;-65
2022/07/30 01:20:29;;;;;;;943.25;879.92;;;;;;;23.92;37.14;101085.69;683840;28;92093;-65
2022/07/30 01:21:00;;;;;;;923.63;861.35;;;;;;;23.90;37.48;101078.75;686606;28;92161;-66
2022/07/30 01:21:29;;;;;;;918.85;856.67;;;;;;;23.92;37.23;101093.97;683028;28;136048;-65
2022/07/30 01:21:57;;;;;;;916.88;854.90;;;;;;;23.91;37.37;101085.97;680504;28;157544;-65
2022/07/30 01:22:34;;;;;;;898.58;837.17;;;;;;;23.91;37.31;101088.72;681078;28;138203;-65
2022/07/30 01:23:01;;;;;;;919.92;857.70;;;;;;;23.89;37.40;101090.91;680769;28;137442;-65
2022/07/30 01:23:24;;;;;;;903.97;842.33;;;;;;;23.88;37.50;101086.47;679106;28;138071;-65
2022/07/30 01:23:49;;;;;;;919.30;857.08;;;;;;;23.88;37.51;101090.06;681435;28;93059;-65
2022/07/30 01:24:20;;;;;;;945.30;882.17;;;;;;;23.88;37.22;101086.47;679564;28;115054;-66
2022/07/30 01:24:44;;;;;;;990.25;924.97;;;;;;;23.87;37.16;101087.56;675352;29;136199;-66
2022/07/30 01:25:11;;;;;;;990.78;925.05;;;;;;;23.88;37.27;101087.31;677991;29;113545;-67
2022/07/30 01:25:55;;;;;;;931.90;868.75;;;;;;;23.89;37.47;101085.41;677484;28;137802;-66
2022/07/30 01:26:19;;;;;;;925.65;863.03;;;;;;;23.88;37.54;101081.78;674421;28;135820;-66
2022/07/30 01:26:40;;;;;;;957.10;893.45;;;;;;;23.83;37.36;101073.44;681592;28;69445;-66
2022/07/30 01:27:02;;;;;;;936.25;873.38;;;;;;;23.90;37.26;101089.81;683423;28;22385;-66
2022/07/30 01:27:24;;;;;;;927.15;864.60;;;;;;;23.90;37.06;101089.81;683042;28;46329;-66
2022/07/30 01:27:48;;;;;;;938.40;875.60;;;;;;;23.90;37.13;101087.91;683047;28;46297;-65
2022/07/30 01:28:11;;;;;;;938.80;875.97;;;;;;;23.91;37.53;101088.72;678876;28;92269;-65
2022/07/30 01:28:37;;;;;;;918.45;856.28;;;;;;;23.91;37.20;101089.53;684791;28;915;-65
2022/07/30 01:29:00;;;;;;;952.70;889.40;;;;;;;23.87;37.22;101087.56;681729;28;137760;-65
2022/07/30 01:29:23;;;;;;;932.67;869.97;;;;;;;23.88;37.64;101086.47;682528;28;23466;-65
2022/07/30 01:29:45;;;;;;;933.65;870.97;;;;;;;23.85;37.57;101084.22;684334;28;90728;-65
2022/07/30 01:30:09;;;;;;;954.95;891.55;;;;;;;23.86;37.70;101086.72;685543;28;22400;-65
2022/07/30 01:30:35;;;;;;;963.58;899.72;;;;;;;23.87;37.57;101085.66;679626;28;90687;-65
2022/07/30 01:30:57;;;;;;;938.35;875.40;;;;;;;23.88;37.51;101087.31;677986;28;137824;-65
2022/07/30 01:31:19;;;;;;;986.28;921.22;;;;;;;23.88;37.74;101083.72;682282;28;45139;-65
2022/07/30 01:31:43;;;;;;;1011.67;945.33;;;;;;;23.88;37.73;101092.81;682632;28;45014;-65
2022/07/30 01:32:07;;;;;;;1026.80;959.88;;;;;;;23.87;37.55;101087.56;678783;29;115089;-65
2022/07/30 01:32:30;;;;;;;1002.33;936.70;;;;;;;23.89;37.51;101088.16;680836;28;70362;-65
2022/07/30 01:32:52;;;;;;;954.60;891.25;;;;;;;23.89;37.59;101082.63;680325;28;45019;-65
2022/07/30 01:33:16;;;;;;;952.67;889.40;;;;;;;23.90;37.21;101089.81;677510;29;69278;-65
2022/07/30 01:33:39;;;;;;;963.15;899.28;;;;;;;23.89;37.40;101082.63;675551;29;69392;-65
2022/07/30 01:34:01;;;;;;;959.33;895.60;;;;;;;23.87;37.40;101073.75;672738;29;90816;-65
2022/07/30 01:34:22;;;;;;;945.30;882.28;;;;;;;23.86;37.47;101074.88;675251;29;1873;-65
2022/07/30 01:34:45;;;;;;;942.33;879.40;;;;;;;23.88;37.74;101083.72;674793;29;45219;-65
2022/07/30 01:35:08;;;;;;;958.38;894.78;;;;;;;23.89;37.33;101085.41;674831;29;67479;-65
2022/07/30 01:35:31;;;;;;;951.85;888.50;;;;;;;23.90;37.71;101081.53;674913;29;70339;-65
2022/07/30 01:35:53;;;;;;;927.60;865.08;;;;;;;23.88;37.36;101080.97;677992;28;69441;-65
2022/07/30 01:36:17;;;;;;;908.40;846.43;;;;;;;23.86;37.45;101080.41;682046;28;44409;-65
2022/07/30 01:36:39;;;;;;;914.45;852.33;;;;;;;23.89;37.37;101086.22;681729;28;92301;-65
2022/07/30 01:37:01;;;;;;;924.67;861.97;;;;;;;23.87;37.40;101082.03;680876;28;45238;-65
2022/07/30 01:37:23;;;;;;;935.63;872.55;;;;;;;23.87;37.56;101080.13;682365;28;44414;-65
2022/07/30 01:37:46;;;;;;;931.80;869.00;;;;;;;23.86;37.55;101081.22;681743;28;69446;-65
2022/07/30 01:38:10;;;;;;;922.08;859.63;;;;;;;23.86;37.61;101088.66;682322;28;69350;-65
2022/07/30 01:38:40;;;;;;;937.42;874.47;;;;;;;23.85;37.69;101079.53;681308;28;69422;-65
2022/07/30 01:39:02;;;;;;;919.42;857.05;;;;;;;23.84;37.61;101088.94;682154;28;137256;-65
2022/07/30 01:39:25;;;;;;;917.88;855.67;;;;;;;23.85;37.47;101078.72;689066;28;21536;-65
2022/07/30 01:39:48;;;;;;;932.33;869.47;;;;;;;23.84;37.59;101079.78;685802;28;92296;-65
2022/07/30 01:40:13;;;;;;;934.08;871.17;;;;;;;23.84;37.62;101082.56;689612;28;997;-65
2022/07/30 01:40:38;;;;;;;931.83;868.90;;;;;;;23.83;37.76;101083.63;683745;28;115776;-65
2022/07/30 01:41:02;;;;;;;928.97;866.17;;;;;;;23.83;37.70;101076.19;683902;28;44288;-65
2022/07/30 01:41:24;;;;;;;922.00;859.40;;;;;;;23.83;37.49;101076.19;680502;28;115825;-65
2022/07/30 01:41:47;;;;;;;924.95;862.47;;;;;;;23.84;37.46;101079.78;684769;28;23436;-65
2022/07/30 01:42:10;;;;;;;926.00;863.53;;;;;;;23.84;37.52;101077.03;681483;28;69597;-65